createdAt,value
2019-05-09T00:00:33.390Z,9.90
2019-05-09T00:03:06.014Z,9.43
2019-05-09T00:05:39.026Z,8.98
2019-05-09T00:08:13.932Z,10.08
2019-05-09T00:10:46.378Z,10.90
2019-05-09T00:13:19.168Z,10.53
2019-05-09T00:15:54.013Z,9.68
2019-05-09T00:18:26.446Z,10.20
2019-05-09T00:21:05.675Z,8.53
2019-05-09T00:23:38.471Z,8.83
2019-05-09T00:26:13.440Z,9.40
2019-05-09T00:28:49.039Z,10.32
2019-05-09T00:31:33.794Z,9.68
2019-05-09T00:34:09.274Z,9.90
2019-05-09T00:36:43.785Z,9.85
2019-05-09T00:39:16.770Z,9.25
2019-05-09T00:41:49.597Z,10.20
2019-05-09T00:44:26.221Z,9.88
2019-05-09T00:47:07.690Z,9.25
2019-05-09T00:49:40.547Z,7.25
2019-05-09T00:52:14.093Z,9.95
2019-05-09T00:54:47.090Z,9.68
2019-05-09T00:57:44.577Z,10.18
2019-05-09T01:00:20.289Z,10.10
2019-05-09T01:02:54.163Z,9.85
2019-05-09T01:05:27.230Z,8.95
2019-05-09T01:08:04.270Z,10.15
2019-05-09T01:10:37.233Z,10.00
2019-05-09T01:13:11.616Z,9.23
2019-05-09T01:15:44.613Z,9.65
2019-05-09T01:18:18.862Z,9.80
2019-05-09T01:20:53.107Z,10.10
2019-05-09T01:23:26.061Z,9.53
2019-05-09T01:25:58.853Z,10.90
2019-05-09T01:28:33.904Z,9.53
2019-05-09T01:31:07.067Z,10.05
2019-05-09T01:33:49.301Z,9.03
2019-05-09T01:36:23.446Z,10.48
2019-05-09T01:38:58.126Z,9.50
2019-05-09T01:41:33.948Z,10.58
2019-05-09T01:44:06.323Z,10.10
2019-05-09T01:46:39.173Z,10.32
2019-05-09T01:49:13.866Z,9.38
2019-05-09T01:51:46.884Z,10.60
2019-05-09T01:54:23.724Z,9.88
2019-05-09T01:56:56.771Z,10.80
2019-05-09T01:59:29.572Z,9.85
2019-05-09T02:02:08.126Z,10.85
2019-05-09T02:04:37.039Z,9.58
2019-05-09T02:07:09.928Z,10.60
2019-05-09T02:09:43.433Z,10.82
2019-05-09T02:12:16.563Z,11.33
2019-05-09T02:15:13.070Z,10.18
2019-05-09T02:18:05.010Z,10.60
2019-05-09T02:20:36.467Z,11.48
2019-05-09T02:23:09.383Z,10.53
2019-05-09T02:25:43.827Z,11.53
2019-05-09T02:28:16.826Z,11.53
2019-05-09T02:30:49.619Z,10.98
2019-05-09T02:33:24.979Z,9.48
2019-05-09T02:36:01.463Z,11.97
2019-05-09T02:38:31.564Z,11.75
2019-05-09T02:41:04.693Z,11.33
2019-05-09T02:43:38.860Z,11.38
2019-05-09T02:46:21.667Z,11.08
2019-05-09T02:48:54.481Z,12.37
2019-05-09T02:51:29.228Z,10.98
2019-05-09T02:54:01.838Z,10.48
2019-05-09T02:56:34.657Z,11.03
2019-05-09T02:59:23.083Z,11.63
2019-05-09T03:02:14.842Z,11.28
2019-05-09T03:04:48.917Z,10.95
2019-05-09T03:07:24.562Z,11.70
2019-05-09T03:09:58.243Z,11.28
2019-05-09T03:12:35.572Z,12.58
2019-05-09T03:15:09.045Z,11.55
2019-05-09T03:17:40.596Z,10.08
2019-05-09T03:20:20.279Z,10.93
2019-05-09T03:22:53.049Z,11.93
2019-05-09T03:25:28.730Z,11.12
2019-05-09T03:28:09.381Z,11.38
2019-05-09T03:30:42.603Z,12.30
2019-05-09T03:33:15.420Z,12.23
2019-05-09T03:35:48.249Z,12.60
2019-05-09T03:38:21.103Z,11.75
2019-05-09T03:40:54.015Z,11.57
2019-05-09T03:43:27.518Z,11.60
2019-05-09T03:46:07.810Z,11.45
2019-05-09T03:48:47.713Z,12.78
2019-05-09T03:51:20.280Z,10.88
2019-05-09T03:53:53.297Z,12.63
2019-05-09T03:56:31.016Z,12.15
2019-05-09T03:59:03.863Z,11.53
2019-05-09T04:01:38.189Z,12.55
2019-05-09T04:04:11.210Z,11.97
2019-05-09T04:06:44.199Z,12.00
2019-05-09T04:09:17.937Z,13.20
2019-05-09T04:11:50.978Z,12.65
2019-05-09T04:14:28.074Z,11.48
2019-05-09T04:17:00.810Z,12.20
2019-05-09T04:19:33.738Z,12.75
2019-05-09T04:22:08.043Z,12.30
2019-05-09T04:24:41.189Z,12.53
2019-05-09T04:27:21.359Z,12.70
2019-05-09T04:29:54.403Z,11.28
2019-05-09T04:32:27.401Z,13.15
2019-05-09T04:35:00.381Z,18.32
2019-05-09T04:37:33.204Z,16.27
2019-05-09T04:40:08.294Z,13.22
2019-05-09T04:42:44.446Z,11.95
2019-05-09T04:45:28.359Z,12.13
2019-05-09T04:48:01.332Z,13.05
2019-05-09T04:50:34.166Z,13.68
2019-05-09T04:53:08.043Z,11.83
2019-05-09T04:55:52.444Z,14.63
2019-05-09T04:58:34.511Z,13.72
2019-05-09T05:01:29.140Z,13.83
2019-05-09T05:04:02.117Z,13.35
2019-05-09T05:06:34.992Z,14.58
2019-05-09T05:09:09.498Z,15.63
2019-05-09T05:11:42.405Z,12.58
2019-05-09T05:14:24.667Z,12.68
2019-05-09T05:17:06.299Z,12.75
2019-05-09T05:19:35.472Z,12.07
2019-05-09T05:22:17.965Z,12.07
2019-05-09T05:24:59.640Z,11.43
2019-05-09T05:27:33.982Z,12.33
2019-05-09T05:30:07.651Z,12.10
2019-05-09T05:32:48.819Z,13.78
2019-05-09T05:35:43.164Z,12.37
2019-05-09T05:38:17.635Z,13.75
2019-05-09T05:40:50.685Z,13.58
2019-05-09T05:43:37.875Z,12.85
2019-05-09T05:46:15.356Z,13.55
2019-05-09T05:48:48.830Z,13.30
2019-05-09T05:51:21.701Z,13.38
2019-05-09T05:53:54.506Z,12.18
2019-05-09T05:56:27.998Z,13.03
2019-05-09T05:59:02.199Z,11.57
2019-05-09T06:01:35.220Z,13.22
2019-05-09T06:04:08.206Z,12.78
2019-05-09T06:06:41.019Z,11.78
2019-05-09T06:09:13.906Z,12.28
2019-05-09T06:11:48.649Z,12.20
2019-05-09T06:14:22.375Z,13.58
2019-05-09T06:16:58.522Z,12.50
2019-05-09T06:19:30.750Z,13.15
2019-05-09T06:22:03.551Z,11.88
2019-05-09T06:24:38.676Z,13.98
2019-05-09T06:27:12.034Z,12.18
2019-05-09T06:29:47.563Z,14.10
2019-05-09T06:32:19.764Z,13.80
2019-05-09T06:34:52.744Z,12.50
2019-05-09T06:37:27.712Z,11.93
2019-05-09T06:40:00.438Z,13.88
2019-05-09T06:42:33.347Z,12.65
2019-05-09T06:45:34.409Z,12.65
2019-05-09T06:48:07.643Z,12.85
2019-05-09T06:50:40.682Z,14.95
2019-05-09T06:53:13.498Z,13.58
2019-05-09T06:55:47.636Z,12.45
2019-05-09T06:58:33.297Z,11.80
2019-05-09T07:01:28.550Z,11.78
2019-05-09T07:04:09.197Z,11.90
2019-05-09T07:06:48.272Z,12.88
2019-05-09T07:09:48.591Z,13.10
2019-05-09T07:12:21.471Z,14.03
2019-05-09T07:14:54.345Z,9.18
2019-05-09T07:17:31.753Z,13.43
2019-05-09T07:20:01.825Z,11.65
2019-05-09T07:23:08.381Z,12.80
2019-05-09T07:26:08.465Z,12.90
2019-05-09T07:28:41.962Z,14.03
2019-05-09T07:31:21.577Z,12.95
2019-05-09T07:34:08.597Z,13.32
2019-05-09T07:36:41.723Z,16.67
2019-05-09T07:39:14.574Z,18.65
2019-05-09T07:41:47.935Z,19.52
2019-05-09T07:44:21.931Z,14.25
2019-05-09T07:46:58.192Z,15.38
2019-05-09T07:49:32.178Z,13.43
2019-05-09T07:52:07.536Z,13.28
2019-05-09T07:54:39.764Z,13.43
2019-05-09T07:57:12.693Z,14.50
2019-05-09T07:59:47.780Z,13.80
2019-05-09T08:02:20.048Z,12.07
2019-05-09T08:04:53.161Z,13.93
2019-05-09T08:07:28.947Z,12.60
2019-05-09T08:10:00.644Z,12.55
2019-05-09T08:12:33.509Z,13.75
2019-05-09T08:15:15.709Z,13.48
2019-05-09T08:17:41.441Z,14.13
2019-05-09T08:20:14.349Z,11.38
2019-05-09T08:22:57.497Z,12.78
2019-05-09T08:25:21.855Z,13.45
2019-05-09T08:27:54.676Z,15.38
2019-05-09T08:30:35.576Z,15.10
2019-05-09T08:33:04.268Z,14.80
2019-05-09T08:35:38.346Z,14.55
2019-05-09T08:38:11.487Z,11.15
2019-05-09T08:40:44.400Z,14.95
2019-05-09T08:43:19.541Z,14.87
2019-05-09T08:45:51.938Z,13.80
2019-05-09T08:48:25.798Z,16.70
2019-05-09T08:51:00.391Z,15.20
2019-05-09T08:53:33.354Z,14.47
2019-05-09T08:56:08.455Z,15.50
2019-05-09T08:58:41.091Z,14.15
2019-05-09T09:01:14.148Z,16.93
2019-05-09T09:03:48.445Z,17.27
2019-05-09T09:06:21.748Z,17.73
2019-05-09T09:08:54.816Z,14.18
2019-05-09T09:11:28.138Z,14.63
2019-05-09T09:14:01.153Z,16.48
2019-05-09T09:16:34.214Z,15.30
2019-05-09T09:19:09.743Z,17.20
2019-05-09T09:21:42.547Z,17.37
2019-05-09T09:24:17.588Z,16.60
2019-05-09T09:26:50.054Z,14.07
2019-05-09T09:29:22.955Z,17.42
2019-05-09T09:31:57.613Z,16.52
2019-05-09T09:34:30.325Z,19.40
2019-05-09T09:37:06.161Z,19.15
2019-05-09T09:39:44.425Z,21.25
2019-05-09T09:42:12.470Z,19.73
2019-05-09T09:44:47.924Z,21.82
2019-05-09T09:47:23.288Z,22.93
2019-05-09T09:49:55.165Z,18.40
2019-05-09T09:52:29.350Z,20.72
2019-05-09T09:55:02.916Z,25.08
2019-05-09T09:57:37.703Z,18.10
2019-05-09T10:00:38.187Z,22.10
2019-05-09T10:03:11.193Z,20.57
2019-05-09T10:05:44.100Z,19.48
2019-05-09T10:08:18.239Z,22.52
2019-05-09T10:10:51.351Z,21.75
2019-05-09T10:13:24.269Z,20.60
2019-05-09T10:16:28.563Z,21.95
2019-05-09T10:19:09.398Z,19.07
2019-05-09T10:21:48.673Z,20.40
2019-05-09T10:24:21.559Z,20.68
2019-05-09T10:27:08.872Z,18.77
2019-05-09T10:29:42.207Z,20.55
2019-05-09T10:32:18.181Z,19.73
2019-05-09T10:34:52.294Z,26.55
2019-05-09T10:37:25.129Z,21.75
2019-05-09T10:39:58.317Z,20.15
2019-05-09T10:42:38.088Z,21.50
2019-05-09T10:45:28.515Z,19.27
2019-05-09T10:48:01.433Z,18.40
2019-05-09T10:50:35.102Z,18.90
2019-05-09T10:53:08.294Z,19.27
2019-05-09T10:55:41.133Z,18.90
2019-05-09T10:58:14.085Z,17.85
2019-05-09T11:00:48.317Z,19.95
2019-05-09T11:03:21.368Z,20.85
2019-05-09T11:05:54.232Z,19.25
2019-05-09T11:08:28.594Z,18.48
2019-05-09T11:11:01.724Z,32.03
2019-05-09T11:13:35.815Z,27.80
2019-05-09T11:16:08.678Z,24.65
2019-05-09T11:18:41.561Z,30.80
2019-05-09T11:21:14.504Z,19.50
2019-05-09T11:23:48.892Z,18.23
2019-05-09T11:26:21.944Z,17.60
2019-05-09T11:28:54.752Z,19.60
2019-05-09T11:31:29.512Z,17.23
2019-05-09T11:34:02.236Z,18.90
2019-05-09T11:36:37.660Z,14.75
2019-05-09T11:39:10.952Z,14.28
2019-05-09T11:41:44.041Z,14.25
2019-05-09T11:44:18.414Z,16.05
2019-05-09T11:46:51.415Z,18.48
2019-05-09T11:49:24.317Z,18.45
2019-05-09T11:51:57.770Z,17.10
2019-05-09T11:54:30.782Z,18.82
2019-05-09T11:57:03.642Z,20.17
2019-05-09T11:59:37.903Z,20.02
2019-05-09T12:02:11.083Z,17.60
2019-05-09T12:04:43.919Z,18.35
2019-05-09T12:07:17.812Z,18.07
2019-05-09T12:09:52.440Z,15.95
2019-05-09T12:12:28.984Z,15.98
2019-05-09T12:15:01.833Z,16.48
2019-05-09T12:17:49.719Z,17.12
2019-05-09T12:20:13.459Z,16.32
2019-05-09T12:22:44.389Z,11.85
2019-05-09T12:25:18.393Z,17.50
2019-05-09T12:27:51.813Z,17.95
2019-05-09T12:30:24.853Z,15.48
2019-05-09T12:33:00.844Z,15.83
2019-05-09T12:35:33.755Z,14.53
2019-05-09T12:38:08.391Z,10.40
2019-05-09T12:40:41.460Z,13.00
2019-05-09T12:43:14.288Z,15.23
2019-05-09T12:45:48.764Z,14.35
2019-05-09T12:48:21.993Z,16.17
2019-05-09T12:50:54.957Z,13.70
2019-05-09T12:53:28.135Z,11.80
2019-05-09T12:56:01.404Z,15.88
2019-05-09T12:58:34.473Z,13.53
2019-05-09T13:01:08.333Z,13.38
2019-05-09T13:03:41.144Z,14.95
2019-05-09T13:06:14.050Z,15.85
2019-05-09T13:08:48.000Z,14.10
2019-05-09T13:11:21.286Z,11.33
2019-05-09T13:13:54.284Z,10.25
2019-05-09T13:16:50.774Z,10.78
2019-05-09T13:19:21.067Z,14.90
2019-05-09T13:21:54.063Z,14.25
2019-05-09T13:24:28.346Z,15.35
2019-05-09T13:27:01.379Z,17.50
2019-05-09T13:29:34.205Z,18.62
2019-05-09T13:32:08.735Z,13.68
2019-05-09T13:34:41.987Z,9.75
2019-05-09T13:37:15.004Z,19.65
2019-05-09T13:39:47.811Z,17.10
2019-05-09T13:42:21.599Z,13.32
2019-05-09T13:44:54.519Z,15.72
2019-05-09T13:47:28.030Z,19.05
2019-05-09T13:50:01.045Z,18.00
2019-05-09T13:52:34.229Z,12.37
2019-05-09T13:55:08.675Z,12.82
2019-05-09T13:57:41.791Z,12.93
2019-05-09T14:00:15.035Z,15.03
2019-05-09T14:02:49.023Z,13.38
2019-05-09T14:05:21.938Z,12.68
2019-05-09T14:07:56.030Z,11.97
2019-05-09T14:10:29.498Z,14.18
2019-05-09T14:13:09.762Z,10.63
2019-05-09T14:15:36.875Z,15.20
2019-05-09T14:18:10.052Z,11.12
2019-05-09T14:20:42.923Z,12.40
2019-05-09T14:23:18.853Z,12.93
2019-05-09T14:25:51.987Z,13.25
2019-05-09T14:28:28.564Z,17.32
2019-05-09T14:31:00.843Z,12.88
2019-05-09T14:33:33.634Z,8.63
2019-05-09T14:36:08.255Z,8.20
2019-05-09T14:38:41.441Z,10.45
2019-05-09T14:41:14.900Z,15.72
2019-05-09T14:43:48.360Z,14.87
2019-05-09T14:46:21.326Z,14.23
2019-05-09T14:48:54.312Z,15.08
2019-05-09T14:51:28.447Z,13.58
2019-05-09T14:54:01.720Z,11.40
2019-05-09T14:56:34.743Z,13.18
2019-05-09T14:59:09.798Z,14.95
2019-05-09T15:01:44.011Z,19.52
2019-05-09T15:04:18.893Z,17.40
2019-05-09T15:06:51.691Z,16.23
2019-05-09T15:09:24.501Z,17.50
2019-05-09T15:11:58.504Z,15.58
2019-05-09T15:14:31.706Z,12.00
2019-05-09T15:17:04.601Z,10.38
2019-05-09T15:19:38.603Z,14.07
2019-05-09T15:22:11.708Z,22.60
2019-05-09T15:24:44.647Z,19.77
2019-05-09T15:27:17.885Z,16.50
2019-05-09T15:29:50.865Z,19.20
2019-05-09T15:32:27.738Z,13.62
2019-05-09T15:35:00.766Z,18.15
2019-05-09T15:37:33.761Z,14.73
2019-05-09T15:40:08.710Z,15.70
2019-05-09T15:42:41.803Z,19.82
2019-05-09T15:45:18.055Z,16.62
2019-05-09T15:47:50.124Z,16.48
2019-05-09T15:50:23.488Z,30.05
2019-05-09T15:52:58.031Z,14.47
2019-05-09T15:55:31.055Z,15.85
2019-05-09T15:58:03.982Z,16.48
2019-05-09T16:00:38.626Z,16.55
2019-05-09T16:03:11.551Z,15.90
2019-05-09T16:05:44.505Z,19.17
2019-05-09T16:08:18.587Z,18.67
2019-05-09T16:10:51.701Z,14.65
2019-05-09T16:13:28.273Z,10.40
2019-05-09T16:16:00.152Z,10.15
2019-05-09T16:18:33.158Z,12.85
2019-05-09T16:21:08.405Z,14.58
2019-05-09T16:23:40.974Z,17.02
2019-05-09T16:26:13.857Z,17.48
2019-05-09T16:28:48.775Z,16.23
2019-05-09T16:31:21.443Z,12.82
2019-05-09T16:33:54.425Z,16.10
2019-05-09T16:36:28.283Z,16.67
2019-05-09T16:39:02.283Z,18.50
2019-05-09T16:41:39.354Z,18.17
2019-05-09T16:44:11.216Z,15.68
2019-05-09T16:46:44.165Z,18.15
2019-05-09T16:49:20.036Z,17.90
2019-05-09T16:51:53.147Z,13.15
2019-05-09T16:54:29.458Z,13.18
2019-05-09T16:57:02.462Z,15.23
2019-05-09T16:59:35.334Z,16.30
2019-05-09T17:02:18.944Z,21.40
2019-05-09T17:04:42.917Z,24.00
2019-05-09T17:07:17.940Z,21.07
2019-05-09T17:09:53.292Z,15.75
2019-05-09T17:12:26.398Z,13.93
2019-05-09T17:14:59.716Z,16.80
2019-05-09T17:17:33.257Z,17.70
2019-05-09T17:20:08.404Z,18.00
2019-05-09T17:23:10.968Z,18.62
2019-05-09T17:25:33.532Z,21.10
2019-05-09T17:28:06.638Z,19.27
2019-05-09T17:30:39.679Z,12.98
2019-05-09T17:33:12.641Z,15.53
2019-05-09T17:35:47.971Z,19.07
2019-05-09T17:38:20.083Z,21.93
2019-05-09T17:40:53.519Z,22.17
2019-05-09T17:43:27.897Z,28.90
2019-05-09T17:46:01.105Z,28.52
2019-05-09T17:48:33.993Z,27.98
2019-05-09T17:51:08.434Z,19.55
2019-05-09T17:53:41.564Z,21.02
2019-05-09T17:56:14.390Z,23.07
2019-05-09T17:58:48.505Z,25.85
2019-05-09T18:01:21.665Z,23.92
2019-05-09T18:03:54.643Z,26.87
2019-05-09T18:06:28.160Z,31.17
2019-05-09T18:09:01.302Z,31.57
2019-05-09T18:11:37.623Z,21.85
2019-05-09T18:14:10.118Z,22.50
2019-05-09T18:16:44.084Z,21.95
2019-05-09T18:19:18.004Z,29.07
2019-05-09T18:21:52.059Z,42.25
2019-05-09T18:24:24.999Z,37.45
2019-05-09T18:26:58.306Z,34.78
2019-05-09T18:29:31.468Z,25.88
2019-05-09T18:32:30.586Z,39.13
2019-05-09T18:35:10.635Z,38.42
2019-05-09T18:37:43.595Z,35.63
2019-05-09T18:40:17.970Z,39.60
2019-05-09T18:42:51.958Z,38.20
2019-05-09T18:45:25.158Z,35.83
2019-05-09T18:47:59.226Z,32.75
2019-05-09T18:50:32.134Z,31.30
2019-05-09T18:53:05.119Z,31.20
2019-05-09T18:55:37.193Z,27.93
2019-05-09T18:58:10.541Z,29.30
2019-05-09T19:00:43.546Z,28.38
2019-05-09T19:03:16.485Z,22.45
2019-05-09T19:05:49.417Z,24.70
2019-05-09T19:08:22.367Z,29.20
2019-05-09T19:10:55.512Z,26.02
2019-05-09T19:13:28.513Z,25.35
2019-05-09T19:16:14.449Z,25.82
2019-05-09T19:19:14.932Z,31.52
2019-05-09T19:21:55.278Z,26.42
2019-05-09T19:24:28.219Z,24.27
2019-05-09T19:27:01.206Z,30.82
2019-05-09T19:29:34.213Z,31.93
2019-05-09T19:32:07.320Z,49.85
2019-05-09T19:34:41.391Z,52.00
2019-05-09T19:37:14.330Z,53.60
2019-05-09T19:39:48.655Z,50.92
2019-05-09T19:42:22.605Z,36.42
2019-05-09T19:44:55.559Z,36.48
2019-05-09T19:47:28.507Z,38.55
2019-05-09T19:50:02.123Z,38.75
2019-05-09T19:52:38.627Z,33.15
2019-05-09T19:55:11.983Z,41.65
2019-05-09T19:57:45.158Z,59.20
2019-05-09T20:00:18.848Z,68.80
2019-05-09T20:02:51.844Z,65.60
2019-05-09T20:05:25.051Z,69.05
2019-05-09T20:07:57.980Z,69.82
2019-05-09T20:10:48.447Z,64.77
2019-05-09T20:13:49.465Z,69.55
2019-05-09T20:16:22.473Z,70.08
2019-05-09T20:18:55.425Z,65.22
2019-05-09T20:21:28.708Z,65.37
2019-05-09T20:24:01.587Z,58.95
2019-05-09T20:26:34.454Z,45.50
2019-05-09T20:29:08.385Z,46.48
2019-05-09T20:31:41.605Z,52.55
2019-05-09T20:34:14.491Z,46.50
2019-05-09T20:36:47.374Z,42.98
2019-05-09T20:39:20.688Z,36.23
2019-05-09T20:41:53.851Z,35.35
2019-05-09T20:44:26.930Z,32.33
2019-05-09T20:47:00.039Z,39.63
2019-05-09T20:49:34.201Z,37.93
2019-05-09T20:52:07.650Z,44.40
2019-05-09T20:54:41.161Z,54.73
2019-05-09T20:57:14.235Z,50.78
2019-05-09T20:59:47.302Z,49.80
2019-05-09T21:02:20.381Z,49.93
2019-05-09T21:04:53.478Z,52.60
2019-05-09T21:07:26.590Z,55.40
2019-05-09T21:09:59.975Z,53.10
2019-05-09T21:12:33.030Z,53.75
2019-05-09T21:15:06.320Z,59.15
2019-05-09T21:17:40.535Z,58.58
2019-05-09T21:20:13.635Z,71.33
2019-05-09T21:22:46.760Z,87.12
2019-05-09T21:25:19.921Z,97.35
2019-05-09T21:27:52.936Z,90.90
2019-05-09T21:30:26.032Z,84.60
2019-05-09T21:32:59.025Z,80.92
2019-05-09T21:35:32.110Z,70.60
2019-05-09T21:38:05.001Z,69.30
2019-05-09T21:40:38.225Z,66.25
2019-05-09T21:43:11.344Z,70.95
2019-05-09T21:45:44.274Z,72.67
2019-05-09T21:48:18.230Z,80.38
2019-05-09T21:50:51.125Z,65.57
2019-05-09T21:53:38.812Z,63.25
2019-05-09T21:55:58.546Z,53.42
2019-05-09T21:58:31.471Z,59.85
2019-05-09T22:01:04.859Z,70.78
2019-05-09T22:03:37.949Z,71.35
2019-05-09T22:06:10.929Z,67.05
2019-05-09T22:08:43.806Z,74.72
2019-05-09T22:11:16.791Z,70.37
2019-05-09T22:13:49.675Z,64.30
2019-05-09T22:16:22.526Z,65.20
2019-05-09T22:18:55.422Z,54.27
2019-05-09T22:21:28.228Z,54.77
2019-05-09T22:24:02.256Z,55.60
2019-05-09T22:26:35.138Z,52.13
2019-05-09T22:29:07.956Z,53.20
2019-05-09T22:31:40.766Z,49.05
2019-05-09T22:34:13.693Z,49.10
2019-05-09T22:36:46.478Z,38.80
2019-05-09T22:39:19.303Z,36.45
2019-05-09T22:41:52.171Z,42.53
2019-05-09T22:44:24.958Z,62.95
2019-05-09T22:46:57.739Z,43.10
2019-05-09T22:49:30.654Z,42.05
2019-05-09T22:52:04.891Z,30.45
2019-05-09T22:54:37.950Z,25.95
2019-05-09T22:57:11.019Z,25.97
2019-05-09T22:59:43.945Z,26.68
2019-05-09T23:02:16.883Z,29.95
2019-05-09T23:04:49.793Z,31.35
2019-05-09T23:07:22.868Z,33.58
2019-05-09T23:09:55.944Z,33.95
2019-05-09T23:12:28.752Z,35.28
2019-05-09T23:15:01.764Z,34.05
2019-05-09T23:17:34.759Z,35.70
2019-05-09T23:20:10.491Z,37.83
2019-05-09T23:22:43.515Z,39.08
2019-05-09T23:25:16.318Z,40.63
2019-05-09T23:27:49.333Z,43.28
2019-05-09T23:30:22.281Z,42.98
2019-05-09T23:32:55.188Z,41.33
2019-05-09T23:35:28.017Z,44.50
2019-05-09T23:38:01.030Z,44.77
2019-05-09T23:40:33.859Z,43.15
2019-05-09T23:43:06.656Z,44.23
2019-05-09T23:45:39.431Z,40.67
2019-05-09T23:48:12.223Z,40.60
2019-05-09T23:50:45.087Z,38.40
2019-05-09T23:53:31.908Z,37.55
2019-05-09T23:56:22.207Z,37.40
2019-05-09T23:59:12.627Z,33.25
